Time;durP1;ratioP1;P1;durP2;ratioP2;P2;SDS_P1;SDS_P2;PMS_P1;PMS_P2;Temp;Humidity;BMP_temperature;BMP_pressure;BME280_temperature;BME280_humidity;BME280_pressure;Samples;Min_cycle;Max_cycle;Signal;HPM_P1;HPM_P2
2022/03/01 00:01:42;;;;;;;16.37;8.47;;;;;;;-3.06;70.71;102587.91;5001498;28;20046;-76
2022/03/01 00:04:07;;;;;;;16.67;7.47;;;;;;;-3.06;71.06;102582.75;5001336;28;20095;-76
2022/03/01 00:06:33;;;;;;;15.73;8.33;;;;;;;-3.08;70.89;102586.09;5016269;28;20399;-76
2022/03/01 00:08:58;;;;;;;19.40;10.20;;;;;;;-3.07;70.76;102587.00;5002866;28;20095;-76
2022/03/01 00:11:23;;;;;;;15.70;8.83;;;;;;;-3.11;71.58;102580.69;4999675;28;20111;-77
2022/03/01 00:13:50;;;;;;;14.57;7.53;;;;;;;-3.13;71.13;102571.91;5005874;28;20045;-76
2022/03/01 00:16:16;;;;;;;17.50;8.43;;;;;;;-3.19;71.65;102566.25;5001597;28;20042;-76
2022/03/01 00:18:41;;;;;;;18.60;8.93;;;;;;;-3.24;71.43;102562.38;4999109;28;20038;-76
2022/03/01 00:21:07;;;;;;;15.23;7.80;;;;;;;-3.28;71.68;102570.63;5002615;28;20087;-77
2022/03/01 00:23:32;;;;;;;15.43;8.40;;;;;;;-3.26;71.17;102574.25;5003686;28;20518;-76
2022/03/01 00:25:58;;;;;;;16.07;8.57;;;;;;;-3.26;71.25;102569.09;5001639;28;20075;-76
2022/03/01 00:28:23;;;;;;;16.07;7.57;;;;;;;-3.28;71.12;102554.25;4998949;28;20058;-76
2022/03/01 00:30:49;;;;;;;14.97;7.83;;;;;;;-3.29;71.70;102549.88;5002586;28;20040;-76
2022/03/01 00:33:15;;;;;;;15.53;7.97;;;;;;;-3.29;71.74;102552.44;4999456;28;20050;-76
2022/03/01 00:35:40;;;;;;;16.53;8.60;;;;;;;-3.31;72.22;102566.13;5001954;28;20034;-76
2022/03/01 00:38:06;;;;;;;15.00;8.13;;;;;;;-3.32;71.76;102556.59;5001193;28;20035;-76
2022/03/01 00:40:31;;;;;;;17.47;8.40;;;;;;;-3.33;71.46;102548.69;5000065;28;20099;-76
2022/03/01 00:42:56;;;;;;;18.57;8.20;;;;;;;-3.35;71.94;102539.94;5002197;28;20073;-76
2022/03/01 00:45:22;;;;;;;17.47;8.50;;;;;;;-3.37;71.74;102544.97;4999873;28;20034;-76
2022/03/01 00:47:47;;;;;;;16.63;8.57;;;;;;;-3.38;72.48;102552.56;5016529;28;20045;-76
2022/03/01 00:50:12;;;;;;;14.60;7.90;;;;;;;-3.40;72.34;102554.16;5016255;28;20053;-76
2022/03/01 00:52:38;;;;;;;16.63;8.50;;;;;;;-3.43;72.65;102535.81;5020222;28;20037;-76
2022/03/01 00:55:04;;;;;;;15.90;7.43;;;;;;;-3.47;72.47;102534.66;5009586;28;20044;-76
2022/03/01 00:57:29;;;;;;;14.47;7.63;;;;;;;-3.50;72.72;102537.00;4997447;28;20034;-76
2022/03/01 00:59:55;;;;;;;14.30;6.93;;;;;;;-3.52;72.07;102529.13;5016104;28;20035;-76
2022/03/01 01:02:20;;;;;;;16.07;7.40;;;;;;;-3.55;72.61;102534.03;5002067;28;20026;-76
2022/03/01 01:04:45;;;;;;;18.17;8.40;;;;;;;-3.58;72.26;102536.34;5002177;28;20419;-76
2022/03/01 01:07:11;;;;;;;16.90;8.13;;;;;;;-3.58;72.44;102528.63;4999398;28;20507;-76
2022/03/01 01:09:36;;;;;;;14.20;7.77;;;;;;;-3.61;72.29;102520.63;5001220;28;20042;-76
2022/03/01 01:12:01;;;;;;;15.77;8.57;;;;;;;-3.62;72.66;102520.47;5000469;28;20042;-77
2022/03/01 01:14:27;;;;;;;16.87;8.30;;;;;;;-3.61;72.80;102524.88;4999603;28;20033;-76
2022/03/01 01:16:52;;;;;;;16.80;8.17;;;;;;;-3.62;73.24;102525.66;5001987;28;20048;-76
2022/03/01 01:19:17;;;;;;;17.30;8.17;;;;;;;-3.64;73.26;102516.88;5014377;28;20042;-76
2022/03/01 01:24:26;;;;;;;16.50;7.67;;;;;;;-3.67;73.30;102521.78;5014744;28;20425;-76
2022/03/01 01:26:52;;;;;;;14.27;7.47;;;;;;;-3.66;73.77;102524.50;4998861;28;20030;-76
2022/03/01 01:29:17;;;;;;;14.43;8.13;;;;;;;-3.67;74.05;102526.94;5014582;28;20030;-76
2022/03/01 01:31:42;;;;;;;15.77;7.83;;;;;;;-3.69;74.32;102524.25;5001638;28;20483;-77
2022/03/01 01:34:08;;;;;;;18.63;8.73;;;;;;;-3.69;74.18;102528.47;4999051;28;20483;-76
2022/03/01 01:36:33;;;;;;;15.27;8.23;;;;;;;-3.69;74.58;102513.94;5000894;28;20700;-76
2022/03/01 01:38:59;;;;;;;17.20;8.07;;;;;;;-3.69;74.42;102524.25;5000449;28;20109;-76
2022/03/01 01:41:25;;;;;;;15.63;8.13;;;;;;;-3.65;73.63;102521.13;4998612;28;20045;-76
2022/03/01 01:43:50;;;;;;;13.50;7.57;;;;;;;-3.66;73.99;102524.50;5007298;28;20034;-76
2022/03/01 01:46:15;;;;;;;16.80;7.60;;;;;;;-3.71;73.81;102530.06;5001247;28;20039;-76
2022/03/01 01:48:40;;;;;;;14.93;7.27;;;;;;;-3.77;73.68;102531.34;5000296;28;20084;-76
2022/03/01 01:51:06;;;;;;;14.07;8.13;;;;;;;-3.79;74.45;102532.91;5000419;28;20094;-77
2022/03/01 01:53:31;;;;;;;17.37;8.30;;;;;;;-3.80;74.27;102530.16;4998702;28;20042;-76
2022/03/01 01:55:57;;;;;;;13.37;6.97;;;;;;;-3.79;73.59;102543.22;4998538;28;20046;-76
2022/03/01 01:58:22;;;;;;;15.53;7.93;;;;;;;-3.78;73.93;102538.94;4999105;28;20035;-76
2022/03/01 02:00:47;;;;;;;16.40;7.80;;;;;;;-3.78;73.41;102539.84;4999844;28;20030;-77
2022/03/01 02:03:13;;;;;;;15.10;7.83;;;;;;;-3.78;73.18;102536.38;5000521;28;20038;-76
2022/03/01 02:05:38;;;;;;;14.57;7.60;;;;;;;-3.77;73.80;102528.78;4998232;28;20445;-76
2022/03/01 02:08:04;;;;;;;17.53;8.07;;;;;;;-3.75;73.73;102531.47;5000951;28;20072;-77
2022/03/01 02:10:29;;;;;;;13.73;6.93;;;;;;;-3.76;72.90;102529.66;4999244;28;20046;-76
2022/03/01 02:12:56;;;;;;;14.33;7.40;;;;;;;-3.76;73.13;102527.09;4998004;28;20031;-76
2022/03/01 02:15:23;;;;;;;16.37;8.07;;;;;;;-3.79;73.30;102532.91;4997211;28;20042;-76
2022/03/01 02:17:48;;;;;;;15.87;8.07;;;;;;;-3.81;73.27;102533.53;4998345;28;20104;-76
2022/03/01 02:20:19;;;;;;;16.63;7.83;;;;;;;-3.81;72.66;102518.97;5000146;28;20491;-76
2022/03/01 02:22:45;;;;;;;15.10;8.00;;;;;;;-3.81;73.21;102520.63;5000194;28;20170;-76
2022/03/01 02:25:11;;;;;;;13.40;7.23;;;;;;;-3.84;72.64;102528.13;4998012;28;20053;-76
2022/03/01 02:27:37;;;;;;;17.83;7.83;;;;;;;-3.87;72.99;102527.88;4997908;28;20035;-76
2022/03/01 02:30:05;;;;;;;15.70;7.33;;;;;;;-3.89;73.46;102517.41;5004760;28;20042;-76
2022/03/01 02:32:30;;;;;;;14.60;7.33;;;;;;;-3.91;72.99;102520.63;4996916;28;20034;-76
2022/03/01 02:34:56;;;;;;;15.33;7.57;;;;;;;-3.92;72.83;102512.00;5000857;28;20415;-76
2022/03/01 02:37:21;;;;;;;14.63;8.63;;;;;;;-3.94;73.16;102503.22;5026091;28;20034;-76
2022/03/01 02:39:46;;;;;;;14.50;7.60;;;;;;;-3.98;73.44;102508.94;5006645;28;20573;-76
2022/03/01 02:42:12;;;;;;;16.47;7.90;;;;;;;-3.97;73.94;102510.72;4997252;28;20754;-76
2022/03/01 02:44:37;;;;;;;15.90;7.43;;;;;;;-3.98;74.01;102499.50;5017718;28;20034;-76
2022/03/01 02:47:03;;;;;;;16.23;8.50;;;;;;;-4.06;74.98;102510.84;5003229;28;20640;-76
2022/03/01 02:49:28;;;;;;;15.10;8.10;;;;;;;-4.15;75.36;102499.75;4998354;28;20422;-76
2022/03/01 02:51:53;;;;;;;19.33;9.03;;;;;;;-4.17;75.27;102506.44;4998796;28;20038;-76
2022/03/01 02:54:19;;;;;;;12.57;7.90;;;;;;;-4.19;75.61;102508.91;4999937;28;20141;-76
2022/03/01 02:56:44;;;;;;;15.87;7.83;;;;;;;-4.19;75.52;102518.34;4997414;28;20089;-76
2022/03/01 02:59:10;;;;;;;14.20;7.43;;;;;;;-4.21;74.93;102525.91;4997746;28;20070;-76
2022/03/01 03:01:35;;;;;;;16.67;8.17;;;;;;;-4.25;75.02;102512.63;4999151;28;20092;-76
2022/03/01 03:04:01;;;;;;;15.47;7.47;;;;;;;-4.26;75.62;102516.00;4999292;28;20088;-76
2022/03/01 03:06:27;;;;;;;16.30;7.40;;;;;;;-4.24;75.54;102517.03;4997583;28;20038;-76
2022/03/01 03:08:52;;;;;;;16.37;7.77;;;;;;;-4.22;74.57;102518.03;5012186;28;20042;-76
2022/03/01 03:11:17;;;;;;;15.63;7.43;;;;;;;-4.21;75.23;102509.56;4999531;28;20038;-77
2022/03/01 03:13:43;;;;;;;15.50;7.67;;;;;;;-4.19;74.88;102514.06;4998244;28;20121;-76
2022/03/01 03:16:10;;;;;;;16.80;8.70;;;;;;;-4.18;74.46;102513.28;5006626;28;20400;-76
2022/03/01 03:18:36;;;;;;;13.83;6.93;;;;;;;-4.19;74.42;102508.91;4997347;28;20123;-76
2022/03/01 03:21:01;;;;;;;13.60;6.83;;;;;;;-4.19;74.26;102513.19;4999447;28;20471;-76
2022/03/01 03:23:27;;;;;;;14.47;7.97;;;;;;;-4.20;74.84;102512.25;4998429;28;20066;-76
2022/03/01 03:25:52;;;;;;;15.07;7.10;;;;;;;-4.25;74.51;102518.69;4998188;28;20073;-76
2022/03/01 03:28:18;;;;;;;13.43;6.40;;;;;;;-4.32;74.09;102515.44;4996452;28;20030;-76
2022/03/01 03:30:43;;;;;;;14.87;7.60;;;;;;;-4.36;74.70;102526.28;5000277;28;20050;-76
2022/03/01 03:33:09;;;;;;;14.57;7.43;;;;;;;-4.39;74.88;102524.34;4997570;28;20034;-76
2022/03/01 03:35:34;;;;;;;15.40;8.10;;;;;;;-4.47;75.21;102517.63;4998427;28;20045;-76
2022/03/01 03:38:00;;;;;;;13.03;6.50;;;;;;;-4.49;75.85;102519.16;4999332;28;20111;-76
2022/03/01 03:40:25;;;;;;;15.23;7.73;;;;;;;-4.52;76.02;102514.66;4996851;28;20457;-76
2022/03/01 03:42:51;;;;;;;18.00;8.03;;;;;;;-4.57;75.77;102515.94;4999566;28;20044;-76
2022/03/01 03:45:16;;;;;;;17.00;8.07;;;;;;;-4.61;76.08;102521.59;4998080;28;20488;-76
2022/03/01 03:47:42;;;;;;;16.30;8.90;;;;;;;-4.63;75.50;102512.84;4998033;28;20141;-76
2022/03/01 03:50:11;;;;;;;16.40;8.17;;;;;;;-4.64;76.10;102524.81;4999607;28;20042;-76
2022/03/01 03:52:40;;;;;;;16.47;8.07;;;;;;;-4.65;75.13;102520.41;4996883;28;20113;-76
2022/03/01 03:55:07;;;;;;;15.67;7.70;;;;;;;-4.68;75.16;102516.69;4998192;28;20037;-76
2022/03/01 03:57:34;;;;;;;14.63;7.87;;;;;;;-4.72;75.12;102512.03;4995934;28;20034;-76
2022/03/01 04:00:00;;;;;;;14.83;7.77;;;;;;;-4.76;76.03;102510.88;4999736;28;20042;-76
2022/03/01 04:02:26;;;;;;;18.80;8.20;;;;;;;-4.75;76.54;102512.66;4997402;28;20463;-76
2022/03/01 04:04:51;;;;;;;17.40;7.63;;;;;;;-4.77;75.76;102511.63;5002721;28;20069;-76
2022/03/01 04:07:17;;;;;;;17.00;8.33;;;;;;;-4.79;75.57;102515.75;5003032;28;20041;-76
2022/03/01 04:09:42;;;;;;;14.90;7.17;;;;;;;-4.79;76.06;102520.91;4995413;28;20042;-76
2022/03/01 04:12:08;;;;;;;15.87;7.27;;;;;;;-4.79;76.04;102519.97;4998903;28;20069;-76
2022/03/01 04:14:33;;;;;;;15.07;7.30;;;;;;;-4.80;76.42;102525.91;4997814;28;20065;-76
2022/03/01 04:16:58;;;;;;;13.17;7.20;;;;;;;-4.85;75.68;102521.28;4999758;28;20506;-76
2022/03/01 04:19:24;;;;;;;13.27;6.93;;;;;;;-4.86;76.28;102522.03;5000387;28;20484;-76
2022/03/01 04:21:50;;;;;;;15.50;7.13;;;;;;;-4.89;76.35;102516.59;4996281;28;20045;-76
2022/03/01 04:24:15;;;;;;;13.63;8.37;;;;;;;-4.91;75.72;102519.81;4998900;28;20038;-76
2022/03/01 04:26:40;;;;;;;14.13;7.20;;;;;;;-4.90;76.13;102522.53;4994263;28;20038;-76
2022/03/01 04:29:06;;;;;;;15.90;7.83;;;;;;;-4.88;75.87;102522.66;5000413;28;20034;-76
2022/03/01 04:31:31;;;;;;;14.97;7.27;;;;;;;-4.91;76.10;102518.16;5009692;28;20049;-76
2022/03/01 04:33:57;;;;;;;17.43;8.00;;;;;;;-4.90;75.43;102519.97;5022495;27;20045;-77
2022/03/01 04:36:22;;;;;;;15.17;7.90;;;;;;;-4.88;75.97;102515.81;5006183;28;20073;-77
2022/03/01 04:38:48;;;;;;;15.47;7.03;;;;;;;-4.87;76.49;102512.50;5032502;28;20488;-76
2022/03/01 04:41:13;;;;;;;15.57;7.00;;;;;;;-4.90;76.61;102517.41;5026209;28;20125;-77
2022/03/01 04:43:38;;;;;;;16.33;8.13;;;;;;;-4.91;75.87;102515.56;5000343;28;20042;-77
2022/03/01 04:46:04;;;;;;;14.60;8.07;;;;;;;-4.91;75.42;102515.56;5003928;28;20038;-76
2022/03/01 04:48:30;;;;;;;14.03;7.43;;;;;;;-4.89;76.10;102516.59;5000868;28;20034;-76
2022/03/01 04:50:55;;;;;;;18.40;7.57;;;;;;;-4.84;75.92;102517.03;5003129;28;20546;-77
2022/03/01 04:53:21;;;;;;;15.40;7.10;;;;;;;-4.77;75.71;102513.28;5003063;28;20406;-76
2022/03/01 04:55:47;;;;;;;14.80;6.90;;;;;;;-4.75;74.87;102510.06;5002185;28;20042;-76
2022/03/01 04:58:12;;;;;;;18.23;7.93;;;;;;;-4.75;75.38;102511.75;4999595;28;20114;-79
2022/03/01 05:00:38;;;;;;;15.43;7.33;;;;;;;-4.73;75.33;102517.97;5001693;28;20042;-77
2022/03/01 05:03:03;;;;;;;19.00;8.23;;;;;;;-4.73;74.68;102525.69;5013377;28;20102;-76
2022/03/01 05:05:28;;;;;;;15.60;7.73;;;;;;;-4.77;75.03;102515.88;5001499;28;20112;-76
2022/03/01 05:07:55;;;;;;;13.37;7.47;;;;;;;-4.83;74.77;102511.09;4999658;28;20545;-76
2022/03/01 05:10:21;;;;;;;15.20;7.10;;;;;;;-4.89;75.01;102526.00;5007256;28;20034;-76
2022/03/01 05:12:55;;;;;;;14.73;8.00;;;;;;;-4.90;75.40;102512.25;5036704;28;20042;-76
2022/03/01 05:15:22;;;;;;;16.30;6.83;;;;;;;-4.92;75.21;102512.88;4999565;28;20038;-76
2022/03/01 05:17:48;;;;;;;18.23;8.50;;;;;;;-4.96;75.94;102513.38;5000188;28;20532;-76
2022/03/01 05:20:15;;;;;;;15.27;7.43;;;;;;;-4.97;75.27;102506.41;5001106;28;20029;-76
2022/03/01 05:22:42;;;;;;;15.40;8.13;;;;;;;-4.95;75.55;102499.69;5019039;28;20044;-76
2022/03/01 05:25:09;;;;;;;18.80;7.97;;;;;;;-4.90;76.41;102509.66;5001692;28;20487;-76
2022/03/01 05:27:36;;;;;;;16.70;7.40;;;;;;;-4.85;75.94;102510.97;4997679;28;20506;-76
2022/03/01 05:30:02;;;;;;;16.07;7.20;;;;;;;-4.82;75.64;102504.25;5000447;28;20038;-75
2022/03/01 05:32:28;;;;;;;16.60;8.00;;;;;;;-4.80;75.37;102497.56;5002302;28;20034;-76
2022/03/01 05:34:54;;;;;;;24.33;10.47;;;;;;;-4.77;75.82;102497.84;5000986;28;20103;-76
2022/03/01 05:37:19;;;;;;;22.63;10.70;;;;;;;-4.71;75.44;102499.28;5007030;28;20038;-76
2022/03/01 05:39:44;;;;;;;16.47;8.70;;;;;;;-4.67;75.58;102506.50;5038889;28;20072;-77
2022/03/01 05:42:10;;;;;;;21.70;10.77;;;;;;;-4.63;75.56;102505.09;5004244;28;20522;-76
2022/03/01 05:44:35;;;;;;;18.13;8.83;;;;;;;-4.58;75.98;102508.97;5001434;28;20478;-76
2022/03/01 05:47:00;;;;;;;20.57;8.90;;;;;;;-4.52;75.93;102509.50;5037248;28;20489;-76
2022/03/01 05:49:26;;;;;;;16.00;8.23;;;;;;;-4.48;75.77;102509.00;5008618;28;20472;-77
2022/03/01 05:51:52;;;;;;;13.80;8.03;;;;;;;-4.46;75.30;102504.88;5001020;28;20527;-77
2022/03/01 05:54:17;;;;;;;14.87;7.57;;;;;;;-4.40;76.15;102512.25;4998341;28;20045;-76
2022/03/01 05:56:42;;;;;;;16.20;8.27;;;;;;;-4.35;75.96;102515.19;5008653;28;20515;-76
2022/03/01 05:59:08;;;;;;;24.77;13.40;;;;;;;-4.29;75.52;102506.31;5062094;27;20039;-76
2022/03/01 06:01:33;;;;;;;26.87;12.87;;;;;;;-4.26;75.29;102518.56;5045245;28;20128;-76
2022/03/01 06:03:58;;;;;;;18.13;9.83;;;;;;;-4.24;75.23;102517.94;5051255;28;20123;-76
2022/03/01 06:06:24;;;;;;;17.00;8.70;;;;;;;-4.25;75.07;102520.38;5052108;28;20110;-76
2022/03/01 06:08:49;;;;;;;19.00;8.83;;;;;;;-4.30;75.28;102508.75;5052346;28;20492;-76
2022/03/01 06:11:14;;;;;;;17.57;9.23;;;;;;;-4.37;75.51;102507.34;5019986;28;20119;-76
2022/03/01 06:13:40;;;;;;;19.97;9.90;;;;;;;-4.32;75.97;102518.03;4998689;28;20396;-76
2022/03/01 06:16:05;;;;;;;18.53;9.50;;;;;;;-4.28;75.24;102522.69;5016407;28;20046;-76
2022/03/01 06:18:31;;;;;;;20.20;10.20;;;;;;;-4.28;76.17;102518.44;5052939;28;20413;-76
2022/03/01 06:20:58;;;;;;;17.17;9.20;;;;;;;-4.28;76.01;102528.75;5026869;28;20101;-77
2022/03/01 06:23:24;;;;;;;20.53;9.57;;;;;;;-4.31;75.57;102527.59;5026982;28;20088;-76
2022/03/01 06:25:49;;;;;;;21.90;10.23;;;;;;;-4.28;76.13;102533.00;5018550;28;20046;-76
2022/03/01 06:28:15;;;;;;;23.17;10.00;;;;;;;-4.27;75.85;102530.56;4998097;28;20392;-76
2022/03/01 06:30:40;;;;;;;19.17;9.03;;;;;;;-4.27;75.92;102534.78;4999741;28;20033;-76
2022/03/01 06:33:05;;;;;;;17.27;8.27;;;;;;;-4.20;76.25;102531.97;5014306;28;20174;-76
2022/03/01 06:35:31;;;;;;;18.17;8.57;;;;;;;-4.09;75.35;102528.63;5001915;28;20038;-76
2022/03/01 06:37:56;;;;;;;15.43;7.40;;;;;;;-3.97;74.97;102531.34;5015573;28;20041;-76
2022/03/01 06:40:22;;;;;;;17.40;8.23;;;;;;;-3.83;75.50;102524.75;4998325;28;20031;-76
2022/03/01 06:42:48;;;;;;;24.77;10.00;;;;;;;-3.70;74.67;102527.59;4999128;28;20030;-76
2022/03/01 06:45:14;;;;;;;17.43;9.13;;;;;;;-3.58;75.07;102522.56;5012116;28;20041;-76
2022/03/01 06:47:39;;;;;;;15.80;8.47;;;;;;;-3.49;74.04;102517.25;5000575;28;20030;-76
2022/03/01 06:50:05;;;;;;;20.37;10.17;;;;;;;-3.42;74.52;102522.13;4998897;28;20034;-76
2022/03/01 06:52:32;;;;;;;18.07;9.27;;;;;;;-3.38;74.64;102519.00;5000996;28;20484;-76
2022/03/01 06:54:57;;;;;;;17.67;8.93;;;;;;;-3.34;74.21;102516.81;4998596;28;20127;-76
2022/03/01 06:57:22;;;;;;;15.20;7.87;;;;;;;-3.25;74.40;102514.06;4996595;28;20072;-76
2022/03/01 06:59:48;;;;;;;15.20;7.60;;;;;;;-3.15;73.74;102511.47;5000502;28;20395;-76
2022/03/01 07:02:13;;;;;;;19.50;8.77;;;;;;;-3.03;74.15;102515.84;4997965;28;20504;-76
2022/03/01 07:04:38;;;;;;;22.17;11.67;;;;;;;-2.93;74.32;102508.03;4999064;28;20038;-76
2022/03/01 07:07:05;;;;;;;17.57;8.93;;;;;;;-2.85;73.47;102512.13;4999469;28;20045;-76
2022/03/01 07:09:31;;;;;;;19.83;10.10;;;;;;;-2.74;73.22;102515.56;4996288;28;20050;-76
2022/03/01 07:11:57;;;;;;;21.63;10.13;;;;;;;-2.67;72.97;102523.03;4999733;28;20377;-76
2022/03/01 07:14:22;;;;;;;18.20;9.30;;;;;;;-2.55;73.11;102517.91;4998718;28;20037;-76
2022/03/01 07:16:47;;;;;;;15.83;7.40;;;;;;;-2.50;72.33;102509.72;4998645;28;20467;-76
2022/03/01 07:19:13;;;;;;;15.40;8.13;;;;;;;-2.42;72.90;102508.63;5000038;28;20495;-76
2022/03/01 07:21:38;;;;;;;14.57;7.97;;;;;;;-2.34;72.71;102504.06;5012051;28;20129;-76
2022/03/01 07:24:04;;;;;;;16.70;8.57;;;;;;;-2.27;73.27;102508.03;4999777;28;20502;-76
2022/03/01 07:26:29;;;;;;;14.17;7.70;;;;;;;-2.21;72.86;102508.50;5009775;28;20456;-76
2022/03/01 07:28:54;;;;;;;17.00;7.50;;;;;;;-2.13;73.06;102509.09;5010122;28;20042;-76
2022/03/01 07:31:21;;;;;;;15.10;8.50;;;;;;;-2.06;72.87;102501.03;4996898;28;20099;-77
2022/03/01 07:33:46;;;;;;;14.97;7.80;;;;;;;-1.96;73.41;102502.63;5005439;28;20116;-76
2022/03/01 07:36:12;;;;;;;12.63;7.03;;;;;;;-1.90;72.35;102498.81;5010891;28;20809;-76
2022/03/01 07:38:37;;;;;;;13.53;6.83;;;;;;;-1.85;72.75;102500.06;5034416;28;20121;-76
2022/03/01 07:41:02;;;;;;;14.17;7.50;;;;;;;-1.82;72.79;102497.69;5009738;28;20508;-76
2022/03/01 07:43:27;;;;;;;13.80;8.00;;;;;;;-1.77;72.59;102495.47;4999858;28;20475;-76
2022/03/01 07:45:53;;;;;;;14.07;7.00;;;;;;;-1.67;72.73;102499.66;5019005;28;20474;-76
2022/03/01 07:48:18;;;;;;;14.83;7.97;;;;;;;-1.58;72.31;102498.63;5004662;28;20063;-76
2022/03/01 07:50:44;;;;;;;18.30;7.43;;;;;;;-1.55;72.31;102498.88;4998973;28;20042;-76
2022/03/01 07:53:09;;;;;;;14.33;7.87;;;;;;;-1.47;72.13;102485.56;4996504;28;20038;-76
2022/03/01 07:55:35;;;;;;;13.83;7.70;;;;;;;-1.36;72.11;102498.53;4999599;28;20045;-76
2022/03/01 07:58:00;;;;;;;23.63;13.37;;;;;;;-1.25;72.30;102494.16;4995729;28;20047;-76
2022/03/01 08:00:27;;;;;;;28.30;14.30;;;;;;;-1.12;72.45;102489.06;4999499;28;20392;-76
2022/03/01 08:02:52;;;;;;;22.83;12.57;;;;;;;-0.99;73.11;102483.06;5040905;28;20031;-76
2022/03/01 08:05:18;;;;;;;32.07;18.20;;;;;;;-0.89;72.74;102490.72;5020139;28;20037;-76
2022/03/01 08:07:43;;;;;;;31.70;17.17;;;;;;;-0.75;73.31;102480.44;5000829;28;20565;-76
2022/03/01 08:10:09;;;;;;;31.43;17.57;;;;;;;-0.65;72.16;102488.06;5001628;28;20037;-76
2022/03/01 08:12:34;;;;;;;17.47;10.33;;;;;;;-0.67;71.05;102477.56;5002133;28;20042;-76
2022/03/01 08:14:59;;;;;;;15.43;8.10;;;;;;;-0.63;71.06;102480.38;4999993;28;20095;-76
2022/03/01 08:17:25;;;;;;;15.00;7.67;;;;;;;-0.58;70.72;102477.31;5002805;28;20033;-76
2022/03/01 08:19:50;;;;;;;14.30;7.27;;;;;;;-0.51;69.05;102471.78;5000701;28;20042;-76
2022/03/01 08:22:16;;;;;;;14.83;7.97;;;;;;;-0.43;69.76;102468.81;5000887;28;20049;-76
2022/03/01 08:24:41;;;;;;;13.90;6.60;;;;;;;-0.35;69.09;102463.34;5017957;28;20037;-76
2022/03/01 08:27:07;;;;;;;12.87;6.93;;;;;;;-0.25;68.83;102463.19;4999307;28;20138;-76
2022/03/01 08:29:33;;;;;;;11.47;6.43;;;;;;;-0.16;67.87;102455.13;5003622;28;20516;-76
2022/03/01 08:31:59;;;;;;;12.50;6.97;;;;;;;-0.08;67.77;102459.16;5001102;28;20038;-76
2022/03/01 08:34:25;;;;;;;16.33;7.83;;;;;;;0.04;67.87;102450.41;5002087;28;20414;-76
2022/03/01 08:36:50;;;;;;;15.50;6.73;;;;;;;0.14;67.81;102452.81;4999526;28;20545;-76
2022/03/01 08:39:15;;;;;;;13.33;6.93;;;;;;;0.25;66.01;102451.81;5002390;28;20041;-76
2022/03/01 08:41:41;;;;;;;14.27;7.90;;;;;;;0.39;65.93;102452.72;5000267;28;20040;-76
2022/03/01 08:44:07;;;;;;;13.53;7.20;;;;;;;0.48;65.90;102445.56;5000721;28;20038;-76
2022/03/01 08:46:32;;;;;;;11.70;6.90;;;;;;;0.61;65.20;102447.25;5002085;28;20412;-76
2022/03/01 08:48:58;;;;;;;15.63;8.50;;;;;;;0.65;65.19;102444.97;4999377;28;20040;-76
2022/03/01 08:51:25;;;;;;;13.70;7.45;;;;;;;0.74;65.08;102448.94;5002077;28;20087;-76
2022/03/01 08:53:52;;;;;;;13.95;7.47;;;;;;;0.86;64.72;102444.50;5004139;28;20026;-76
2022/03/01 08:56:17;;;;;;;10.47;6.30;;;;;;;0.96;64.38;102440.81;5010559;28;20041;-76
2022/03/01 08:58:44;;;;;;;14.20;7.20;;;;;;;1.05;64.48;102433.59;5030392;28;20459;-76
2022/03/01 09:01:09;;;;;;;12.65;6.40;;;;;;;1.15;64.54;102430.75;5001125;28;20034;-76
2022/03/01 09:03:35;;;;;;;15.25;7.10;;;;;;;1.24;63.12;102431.34;4996304;28;20062;-76
2022/03/01 09:06:02;;;;;;;15.52;6.53;;;;;;;1.33;62.93;102422.28;5000942;28;20129;-76
2022/03/01 09:08:28;;;;;;;13.77;7.63;;;;;;;1.39;62.07;102425.25;5022157;28;20046;-76
2022/03/01 09:10:53;;;;;;;15.70;8.57;;;;;;;1.52;62.31;102409.63;5029064;28;20044;-76
2022/03/01 09:13:18;;;;;;;12.82;7.72;;;;;;;1.66;61.74;102418.25;5011250;28;20030;-76
2022/03/01 09:15:44;;;;;;;12.98;7.57;;;;;;;1.75;61.35;102416.19;5025558;28;20076;-76
2022/03/01 09:18:09;;;;;;;14.27;7.22;;;;;;;1.87;61.49;102413.44;5022866;28;20119;-76
2022/03/01 09:20:35;;;;;;;18.35;11.25;;;;;;;1.96;60.02;102413.97;5003173;28;20103;-76
2022/03/01 09:23:01;;;;;;;16.70;8.80;;;;;;;2.05;60.55;102405.81;5037153;28;20388;-76
2022/03/01 09:25:27;;;;;;;18.45;9.43;;;;;;;2.13;60.08;102404.53;5001443;28;20507;-76
2022/03/01 09:27:52;;;;;;;17.95;10.65;;;;;;;2.18;58.84;102401.41;4998998;28;20034;-76
2022/03/01 09:30:18;;;;;;;13.80;9.48;;;;;;;2.22;58.52;102401.56;4998901;28;20049;-76
2022/03/01 09:32:44;;;;;;;12.80;7.32;;;;;;;2.29;57.28;102401.13;5016018;28;20044;-76
2022/03/01 09:35:10;;;;;;;16.60;9.77;;;;;;;2.37;58.09;102405.06;5040544;28;20103;-76
2022/03/01 09:37:36;;;;;;;15.45;8.73;;;;;;;2.46;58.14;102402.06;5015053;28;20047;-76
2022/03/01 09:40:04;;;;;;;12.68;7.47;;;;;;;2.49;55.34;102395.34;5010314;28;20034;-76
2022/03/01 09:42:31;;;;;;;11.75;6.95;;;;;;;2.51;56.37;102391.09;4994537;28;20044;-76
2022/03/01 09:44:57;;;;;;;16.30;8.50;;;;;;;2.55;56.06;102385.25;5009213;28;20045;-76
2022/03/01 09:47:23;;;;;;;12.20;6.45;;;;;;;2.50;54.43;102381.47;5007401;28;20140;-76
2022/03/01 09:49:48;;;;;;;15.65;7.63;;;;;;;2.54;54.53;102379.94;5011062;28;20539;-76
2022/03/01 09:52:14;;;;;;;11.13;6.45;;;;;;;2.66;54.82;102379.75;5016881;28;20559;-76
2022/03/01 09:54:42;;;;;;;15.35;9.60;;;;;;;2.75;55.58;102375.94;5006673;28;20042;-76
2022/03/01 09:57:07;;;;;;;13.13;7.63;;;;;;;2.83;55.01;102368.53;5010220;28;20038;-76
2022/03/01 09:59:34;;;;;;;11.98;7.18;;;;;;;2.93;54.68;102373.41;5009503;28;20510;-76
2022/03/01 10:02:00;;;;;;;11.10;6.70;;;;;;;2.96;53.92;102363.19;5038943;28;20051;-76
2022/03/01 10:04:25;;;;;;;10.40;6.57;;;;;;;3.01;54.02;102368.63;5012975;28;20638;-76
2022/03/01 10:06:51;;;;;;;13.55;6.10;;;;;;;3.11;54.09;102365.69;5004764;28;20499;-76
2022/03/01 10:09:23;;;;;;;12.43;7.25;;;;;;;3.11;53.31;102365.69;5000677;28;20029;-76
2022/03/01 10:11:49;;;;;;;12.88;7.88;;;;;;;3.15;53.84;102351.13;5013362;28;20074;-76
2022/03/01 10:14:26;;;;;;;11.50;7.05;;;;;;;3.27;53.93;102355.28;4998872;28;20722;-76
2022/03/01 10:16:51;;;;;;;10.55;6.72;;;;;;;3.37;53.61;102353.13;5013425;28;20446;-76
2022/03/01 10:19:19;;;;;;;13.65;7.35;;;;;;;3.51;53.76;102347.81;4999267;28;20056;-76
2022/03/01 10:21:56;;;;;;;10.73;5.78;;;;;;;3.65;52.12;102335.47;4999443;28;20107;-76
2022/03/01 10:24:22;;;;;;;10.38;5.20;;;;;;;3.77;52.40;102340.41;4997545;28;20065;-76
2022/03/01 10:26:49;;;;;;;9.35;5.20;;;;;;;3.84;51.10;102339.00;4997968;28;20592;-76
2022/03/01 10:29:15;;;;;;;9.68;5.60;;;;;;;3.88;50.20;102334.00;4998069;28;20041;-76
2022/03/01 10:31:42;;;;;;;12.00;5.60;;;;;;;3.96;50.88;102334.41;5001129;28;20543;-76
2022/03/01 10:34:10;;;;;;;12.68;6.55;;;;;;;4.09;50.14;102334.19;5004997;28;20049;-76
2022/03/01 10:36:49;;;;;;;10.43;6.10;;;;;;;4.14;48.38;102322.25;5045470;27;20030;-76
2022/03/01 10:39:20;;;;;;;11.05;5.38;;;;;;;4.14;48.78;102329.19;5004834;28;20124;-76
2022/03/01 10:41:48;;;;;;;10.00;5.22;;;;;;;4.26;49.80;102316.69;5000148;28;20056;-76
2022/03/01 10:44:20;;;;;;;12.73;5.63;;;;;;;4.44;49.77;102318.41;4999993;28;20044;-76
2022/03/01 10:46:49;;;;;;;10.77;5.03;;;;;;;4.56;50.18;102314.66;5028266;28;20042;-76
2022/03/01 10:49:16;;;;;;;14.38;5.60;;;;;;;4.67;49.91;102311.66;5007334;28;20034;-76
2022/03/01 10:51:56;;;;;;;12.25;5.65;;;;;;;4.57;47.74;102307.69;5020334;28;20037;-76
2022/03/01 10:54:44;;;;;;;11.93;5.20;;;;;;;4.55;47.26;102305.00;5015811;28;20038;-76
2022/03/01 10:57:11;;;;;;;9.70;4.93;;;;;;;4.63;47.23;102300.13;5008219;28;20052;-76
2022/03/01 10:59:38;;;;;;;13.48;5.30;;;;;;;4.71;47.19;102296.13;5009789;28;20046;-76
2022/03/01 11:02:05;;;;;;;10.88;5.00;;;;;;;4.79;47.88;102293.88;5027824;28;20511;-81
2022/03/01 11:04:31;;;;;;;11.25;6.13;;;;;;;4.87;46.44;102299.47;5016232;28;20049;-76
2022/03/01 11:07:01;;;;;;;12.07;5.65;;;;;;;4.88;46.32;102294.31;5034858;28;20036;-76
2022/03/01 11:09:29;;;;;;;9.05;5.55;;;;;;;4.99;46.99;102281.72;5027562;28;20066;-76
2022/03/01 11:11:56;;;;;;;10.25;6.03;;;;;;;5.10;46.53;102285.69;5009620;28;20037;-75
2022/03/01 11:14:43;;;;;;;9.93;5.55;;;;;;;5.11;47.37;102277.03;5000575;28;20040;-75
2022/03/01 11:17:45;;;;;;;10.43;5.95;;;;;;;5.23;45.87;102281.88;4987678;28;20076;-75